Terminal Aerodrome Forecast
Issued by NWS

Home | Current Version | Previous Version | Text Only | Print | Product List | Glossary On
Versions: 1 2 3 4 5 6 7 8 9 10 11 12 13 14 15 16 17 18 19 20
000
FTUS41 KILN 222000 AAA
TAFLCK
TAF AMD
KLCK 222051Z 2221/2318 32010KT P6SM VCSH SCT060
      TEMPO 2221/2222 5SM -RA
     FM230000 VRB03KT P6SM SCT250
     FM231400 15006KT P6SM SCT200=

USA.gov is the U.S. government's official web portal to all federal, state and local government web resources and services.